Time,TemperatureF,DewpointF,PressureIn,WindDirection,WindDirectionDegrees,WindSpeedMPH,WindSpeedGustMPH,Humidity,HourlyPrecipIn,Conditions,Clouds,dailyrainin,SoftwareType,DateUTC
2013-01-07 00:00:00,70.5,68.7,30.08,SW,236,0.0,3.0,94,0.00,,,0.00,VWS V14.00,2013-01-07 05:00:00,
2013-01-07 00:01:00,70.6,68.8,30.08,SW,236,2.0,2.0,94,0.00,,,0.00,VWS V14.00,2013-01-07 05:01:00,
2013-01-07 00:06:00,70.6,68.8,30.07,SW,236,1.0,4.0,94,0.00,,,0.00,VWS V14.00,2013-01-07 05:06:00,
2013-01-07 00:11:00,70.6,68.8,30.07,WSW,240,2.0,4.0,94,0.00,,,0.00,VWS V14.00,2013-01-07 05:11:00,
2013-01-07 00:16:00,70.7,68.9,30.07,WSW,240,0.0,2.0,94,0.00,,,0.00,VWS V14.00,2013-01-07 05:16:00,
2013-01-07 00:21:00,70.7,68.9,30.07,WSW,240,0.0,2.0,94,0.00,,,0.00,VWS V14.00,2013-01-07 05:21:00,
2013-01-07 00:26:00,70.7,68.9,30.07,WSW,240,0.0,2.0,94,0.00,,,0.00,VWS V14.00,2013-01-07 05:26:00,
2013-01-07 00:31:00,70.7,68.9,30.07,WSW,246,0.0,3.0,94,0.00,,,0.00,VWS V14.00,2013-01-07 05:31:00,
2013-01-07 00:36:00,70.6,68.8,30.07,WSW,246,1.0,3.0,94,0.00,,,0.00,VWS V14.00,2013-01-07 05:36:00,
2013-01-07 00:41:00,70.6,68.8,30.07,WSW,246,0.0,3.0,94,0.00,,,0.00,VWS V14.00,2013-01-07 05:41:00,
2013-01-07 00:46:00,70.7,68.9,30.07,NE,38,0.0,4.0,94,0.00,,,0.00,VWS V14.00,2013-01-07 05:46:00,
2013-01-07 00:50:00,70.6,68.8,30.07,ENE,62,4.0,7.0,94,0.00,,,0.00,VWS V14.00,2013-01-07 05:50:00,
2013-01-07 00:56:00,70.5,68.7,30.07,ENE,62,2.0,7.0,94,0.00,,,0.00,VWS V14.00,2013-01-07 05:56:00,
2013-01-07 01:00:00,70.4,68.6,30.06,ENE,61,2.0,5.0,94,0.00,,,0.00,VWS V14.00,2013-01-07 06:00:00,
2013-01-07 01:05:00,70.3,68.5,30.06,ENE,61,2.0,5.0,94,0.00,,,0.00,VWS V14.00,2013-01-07 06:05:00,
2013-01-07 01:10:00,70.2,68.4,30.06,ENE,63,1.0,5.0,94,0.00,,,0.00,VWS V14.00,2013-01-07 06:10:00,
2013-01-07 01:16:00,70.1,68.3,30.06,ENE,63,1.0,1.0,94,0.00,,,0.00,VWS V14.00,2013-01-07 06:16:00,
2013-01-07 01:21:00,70.0,67.9,30.06,ENE,63,0.0,2.0,93,0.00,,,0.00,VWS V14.00,2013-01-07 06:21:00,
2013-01-07 01:26:00,69.8,68.0,30.06,ENE,63,0.0,3.0,94,0.00,,,0.00,VWS V14.00,2013-01-07 06:26:00,
2013-01-07 01:31:00,69.7,67.9,30.05,ENE,63,2.0,2.0,94,0.00,,,0.00,VWS V14.00,2013-01-07 06:31:00,
2013-01-07 01:36:00,69.6,67.8,30.06,ENE,63,0.0,2.0,94,0.00,,,0.00,VWS V14.00,2013-01-07 06:36:00,
2013-01-07 01:41:00,69.5,67.7,30.06,ENE,63,0.0,2.0,94,0.00,,,0.00,VWS V14.00,2013-01-07 06:41:00,
2013-01-07 01:46:00,69.4,67.6,30.06,ENE,63,0.0,0.0,94,0.00,,,0.00,VWS V14.00,2013-01-07 06:46:00,
2013-01-07 01:51:00,69.3,67.5,30.05,ENE,63,0.0,1.0,94,0.00,,,0.00,VWS V14.00,2013-01-07 06:51:00,
2013-01-07 01:56:00,69.3,67.5,30.06,ENE,63,0.0,2.0,94,0.00,,,0.00,VWS V14.00,2013-01-07 06:56:00,
2013-01-07 02:01:00,69.3,67.5,30.06,ENE,63,1.0,1.0,94,0.00,,,0.00,VWS V14.00,2013-01-07 07:01:00,
2013-01-07 02:06:00,69.3,67.5,30.05,ENE,63,1.0,1.0,94,0.00,,,0.00,VWS V14.00,2013-01-07 07:06:00,
2013-01-07 02:10:00,69.1,67.3,30.06,ENE,63,0.0,2.0,94,0.00,,,0.00,VWS V14.00,2013-01-07 07:10:00,
2013-01-07 02:16:00,69.0,67.2,30.05,ENE,63,0.0,0.0,94,0.00,,,0.00,VWS V14.00,2013-01-07 07:16:00,
2013-01-07 02:21:00,69.0,67.2,30.05,ENE,63,0.0,0.0,94,0.00,,,0.00,VWS V14.00,2013-01-07 07:21:00,
2013-01-07 02:26:00,68.9,67.1,30.05,ENE,63,0.0,1.0,94,0.00,,,0.00,VWS V14.00,2013-01-07 07:26:00,
2013-01-07 02:31:00,68.9,67.1,30.05,ENE,63,0.0,0.0,94,0.00,,,0.00,VWS V14.00,2013-01-07 07:31:00,
2013-01-07 02:36:00,69.0,67.2,30.05,ENE,63,0.0,3.0,94,0.00,,,0.00,VWS V14.00,2013-01-07 07:36:00,
2013-01-07 02:40:00,68.9,67.1,30.05,ENE,63,0.0,3.0,94,0.00,,,0.00,VWS V14.00,2013-01-07 07:40:00,
2013-01-07 02:45:00,69.0,67.2,30.05,ENE,63,0.0,1.0,94,0.00,,,0.00,VWS V14.00,2013-01-07 07:45:00,
2013-01-07 02:50:00,68.9,67.1,30.05,ENE,63,0.0,1.0,94,0.00,,,0.00,VWS V14.00,2013-01-07 07:50:00,
2013-01-07 02:55:00,68.8,67.0,30.05,ENE,63,0.0,1.0,94,0.00,,,0.00,VWS V14.00,2013-01-07 07:55:00,
2013-01-07 03:00:00,68.8,67.0,30.05,ENE,63,0.0,0.0,94,0.00,,,0.00,VWS V14.00,2013-01-07 08:00:00,
2013-01-07 03:06:00,68.7,66.9,30.05,ENE,63,0.0,2.0,94,0.00,,,0.00,VWS V14.00,2013-01-07 08:06:00,
2013-01-07 03:10:00,68.7,67.2,30.05,ENE,63,2.0,3.0,95,0.00,,,0.00,VWS V14.00,2013-01-07 08:10:00,
2013-01-07 03:16:00,68.7,67.2,30.05,ENE,63,0.0,1.0,95,0.00,,,0.00,VWS V14.00,2013-01-07 08:16:00,
2013-01-07 03:21:00,68.9,67.4,30.05,ENE,63,0.0,2.0,95,0.00,,,0.00,VWS V14.00,2013-01-07 08:21:00,
2013-01-07 03:26:00,69.0,67.5,30.05,ENE,63,0.0,3.0,95,0.00,,,0.00,VWS V14.00,2013-01-07 08:26:00,
2013-01-07 03:31:00,69.0,67.5,30.05,ENE,63,0.0,0.0,95,0.00,,,0.00,VWS V14.00,2013-01-07 08:31:00,
2013-01-07 03:36:00,69.0,67.5,30.04,ENE,63,0.0,1.0,95,0.00,,,0.00,VWS V14.00,2013-01-07 08:36:00,
2013-01-07 03:41:00,69.0,67.5,30.04,ENE,63,0.0,1.0,95,0.00,,,0.00,VWS V14.00,2013-01-07 08:41:00,
2013-01-07 03:46:00,69.0,67.5,30.04,ENE,63,0.0,1.0,95,0.00,,,0.00,VWS V14.00,2013-01-07 08:46:00,
2013-01-07 03:51:00,69.0,67.5,30.05,ENE,63,0.0,2.0,95,0.00,,,0.00,VWS V14.00,2013-01-07 08:51:00,
2013-01-07 03:56:00,68.9,67.4,30.05,ENE,63,0.0,2.0,95,0.00,,,0.00,VWS V14.00,2013-01-07 08:56:00,
2013-01-07 04:01:00,69.0,67.5,30.04,ENE,63,0.0,1.0,95,0.00,,,0.00,VWS V14.00,2013-01-07 09:01:00,
2013-01-07 04:06:00,69.0,67.5,30.04,ENE,63,0.0,1.0,95,0.00,,,0.00,VWS V14.00,2013-01-07 09:06:00,
2013-01-07 04:11:00,69.0,67.5,30.04,ENE,63,0.0,1.0,95,0.00,,,0.00,VWS V14.00,2013-01-07 09:11:00,
2013-01-07 04:16:00,69.0,67.5,30.04,ENE,63,0.0,1.0,95,0.00,,,0.00,VWS V14.00,2013-01-07 09:16:00,
2013-01-07 04:21:00,68.9,67.4,30.04,ENE,61,3.0,5.0,95,0.00,,,0.00,VWS V14.00,2013-01-07 09:21:00,
2013-01-07 04:26:00,68.9,67.4,30.04,ENE,63,2.0,5.0,95,0.00,,,0.00,VWS V14.00,2013-01-07 09:26:00,
2013-01-07 04:30:00,68.9,67.4,30.04,ENE,63,3.0,3.0,95,0.00,,,0.00,VWS V14.00,2013-01-07 09:30:00,
2013-01-07 04:35:00,68.9,67.4,30.04,ENE,63,2.0,3.0,95,0.00,,,0.00,VWS V14.00,2013-01-07 09:35:00,
2013-01-07 04:40:00,68.9,67.4,30.04,ENE,63,0.0,3.0,95,0.00,,,0.00,VWS V14.00,2013-01-07 09:40:00,
2013-01-07 04:45:00,68.8,67.3,30.05,ENE,63,2.0,4.0,95,0.00,,,0.00,VWS V14.00,2013-01-07 09:45:00,
2013-01-07 04:50:00,68.8,67.3,30.05,ENE,63,2.0,4.0,95,0.00,,,0.00,VWS V14.00,2013-01-07 09:50:00,
2013-01-07 04:55:00,68.8,67.3,30.05,NE,48,3.0,6.0,95,0.00,,,0.00,VWS V14.00,2013-01-07 09:55:00,
2013-01-07 05:00:00,68.9,67.4,30.05,NE,48,4.0,5.0,95,0.00,,,0.00,VWS V14.00,2013-01-07 10:00:00,
2013-01-07 05:05:00,68.8,67.3,30.05,NE,47,2.0,6.0,95,0.00,,,0.00,VWS V14.00,2013-01-07 10:05:00,
2013-01-07 05:10:00,68.8,67.3,30.05,NE,43,2.0,7.0,95,0.00,,,0.00,VWS V14.00,2013-01-07 10:10:00,
2013-01-07 05:15:00,68.8,67.3,30.05,NE,43,3.0,5.0,95,0.00,,,0.00,VWS V14.00,2013-01-07 10:15:00,
2013-01-07 05:20:00,68.8,67.3,30.05,NE,43,1.0,6.0,95,0.00,,,0.00,VWS V14.00,2013-01-07 10:20:00,
2013-01-07 05:25:00,68.7,67.2,30.05,NE,43,0.0,6.0,95,0.00,,,0.00,VWS V14.00,2013-01-07 10:25:00,
2013-01-07 05:30:00,68.7,67.2,30.05,NE,43,0.0,1.0,95,0.00,,,0.00,VWS V14.00,2013-01-07 10:30:00,
2013-01-07 05:35:00,68.7,67.2,30.05,NE,43,2.0,3.0,95,0.00,,,0.00,VWS V14.00,2013-01-07 10:35:00,
2013-01-07 05:40:00,68.7,67.2,30.05,ENE,69,2.0,5.0,95,0.00,,,0.00,VWS V14.00,2013-01-07 10:40:00,
2013-01-07 05:45:00,68.6,67.1,30.05,ENE,71,2.0,4.0,95,0.00,,,0.00,VWS V14.00,2013-01-07 10:45:00,
2013-01-07 05:50:00,68.6,67.1,30.05,ENE,70,0.0,4.0,95,0.00,,,0.00,VWS V14.00,2013-01-07 10:50:00,
2013-01-07 05:55:00,68.6,67.1,30.05,ENE,70,0.0,5.0,95,0.00,,,0.00,VWS V14.00,2013-01-07 10:55:00,
2013-01-07 06:00:00,68.6,67.1,30.05,ENE,70,0.0,0.0,95,0.00,,,0.00,VWS V14.00,2013-01-07 11:00:00,
2013-01-07 06:05:00,68.6,67.1,30.05,ENE,70,1.0,2.0,95,0.00,,,0.00,VWS V14.00,2013-01-07 11:05:00,
2013-01-07 06:10:00,68.7,67.2,30.05,ENE,70,0.0,3.0,95,0.00,,,0.00,VWS V14.00,2013-01-07 11:10:00,
2013-01-07 06:15:00,68.7,67.2,30.05,ENE,70,1.0,1.0,95,0.00,,,0.00,VWS V14.00,2013-01-07 11:15:00,
2013-01-07 06:20:00,68.6,67.1,30.06,ENE,70,3.0,6.0,95,0.00,,,0.00,VWS V14.00,2013-01-07 11:20:00,
2013-01-07 06:25:00,68.7,67.2,30.06,ENE,70,0.0,6.0,95,0.00,,,0.00,VWS V14.00,2013-01-07 11:25:00,
2013-01-07 06:30:00,68.7,67.2,30.06,ENE,70,4.0,4.0,95,0.00,,,0.00,VWS V14.00,2013-01-07 11:30:00,
2013-01-07 06:35:00,68.8,67.3,30.07,ENE,70,1.0,4.0,95,0.00,,,0.00,VWS V14.00,2013-01-07 11:35:00,
2013-01-07 06:40:00,68.7,67.2,30.07,ENE,70,4.0,4.0,95,0.00,,,0.00,VWS V14.00,2013-01-07 11:40:00,
2013-01-07 06:45:00,68.7,67.2,30.07,ENE,70,2.0,3.0,95,0.00,,,0.00,VWS V14.00,2013-01-07 11:45:00,
2013-01-07 06:50:00,68.7,67.2,30.08,ENE,70,0.0,4.0,95,0.00,,,0.00,VWS V14.00,2013-01-07 11:50:00,
2013-01-07 06:55:00,68.7,67.2,30.08,NE,49,2.0,7.0,95,0.00,,,0.00,VWS V14.00,2013-01-07 11:55:00,
2013-01-07 07:00:00,68.7,67.2,30.08,NE,37,3.0,8.0,95,0.00,,,0.00,VWS V14.00,2013-01-07 12:00:00,
2013-01-07 07:05:00,68.7,67.2,30.08,NE,42,2.0,8.0,95,0.00,,,0.00,VWS V14.00,2013-01-07 12:05:00,
2013-01-07 07:10:00,68.7,67.2,30.08,NE,45,2.0,8.0,95,0.00,,,0.00,VWS V14.00,2013-01-07 12:10:00,
2013-01-07 07:15:00,68.8,67.3,30.08,NE,55,0.0,1.0,95,0.00,,,0.00,VWS V14.00,2013-01-07 12:15:00,
2013-01-07 07:20:00,68.7,67.2,30.08,NE,41,3.0,11.0,95,0.00,,,0.00,VWS V14.00,2013-01-07 12:20:00,
2013-01-07 07:25:00,68.7,67.2,30.08,NE,41,2.0,11.0,95,0.00,,,0.00,VWS V14.00,2013-01-07 12:25:00,
2013-01-07 07:30:00,68.7,66.9,30.08,NNE,32,3.0,3.0,94,0.00,,,0.00,VWS V14.00,2013-01-07 12:30:00,
2013-01-07 07:35:00,68.7,66.9,30.08,NE,48,3.0,6.0,94,0.00,,,0.00,VWS V14.00,2013-01-07 12:35:00,
2013-01-07 07:40:00,68.7,67.2,30.08,NE,48,3.0,6.0,95,0.00,,,0.00,VWS V14.00,2013-01-07 12:40:00,
2013-01-07 07:45:00,68.8,67.3,30.09,NE,48,4.0,6.0,95,0.00,,,0.00,VWS V14.00,2013-01-07 12:45:00,
2013-01-07 07:50:00,68.8,67.3,30.09,NE,49,3.0,6.0,95,0.00,,,0.00,VWS V14.00,2013-01-07 12:50:00,
2013-01-07 07:55:00,68.7,66.9,30.09,NE,49,3.0,6.0,94,0.00,,,0.00,VWS V14.00,2013-01-07 12:55:00,
2013-01-07 08:00:00,68.7,66.9,30.10,NE,49,2.0,3.0,94,0.00,,,0.00,VWS V14.00,2013-01-07 13:00:00,
2013-01-07 08:05:00,68.7,67.2,30.10,NE,49,2.0,3.0,95,0.00,,,0.00,VWS V14.00,2013-01-07 13:05:00,
2013-01-07 08:10:00,68.7,67.2,30.10,NE,49,2.0,3.0,95,0.00,,,0.00,VWS V14.00,2013-01-07 13:10:00,
2013-01-07 08:15:00,68.7,67.2,30.10,NE,49,2.0,2.0,95,0.00,,,0.00,VWS V14.00,2013-01-07 13:15:00,
2013-01-07 08:20:00,68.7,67.2,30.11,NE,49,2.0,2.0,95,0.00,,,0.00,VWS V14.00,2013-01-07 13:20:00,
2013-01-07 08:25:00,68.7,67.2,30.11,NE,49,2.0,2.0,95,0.00,,,0.00,VWS V14.00,2013-01-07 13:25:00,
2013-01-07 08:30:00,68.7,67.2,30.11,NE,49,2.0,2.0,95,0.00,,,0.00,VWS V14.00,2013-01-07 13:30:00,
2013-01-07 08:35:00,68.7,67.2,30.11,NE,49,2.0,2.0,95,0.00,,,0.00,VWS V14.00,2013-01-07 13:35:00,
2013-01-07 08:40:00,68.7,67.2,30.11,NE,49,2.0,2.0,95,0.00,,,0.00,VWS V14.00,2013-01-07 13:40:00,
2013-01-07 08:45:00,68.7,67.2,30.11,NE,49,2.0,2.0,95,0.00,,,0.00,VWS V14.00,2013-01-07 13:45:00,
2013-01-07 08:50:00,68.7,67.2,30.11,NE,49,2.0,2.0,95,0.00,,,0.00,VWS V14.00,2013-01-07 13:50:00,
2013-01-07 08:55:00,68.7,67.2,30.11,NE,49,2.0,2.0,95,0.00,,,0.00,VWS V14.00,2013-01-07 13:55:00,
2013-01-07 09:00:00,68.7,67.2,30.11,NE,49,2.0,2.0,95,0.00,,,0.00,VWS V14.00,2013-01-07 14:00:00,
2013-01-07 09:05:00,68.7,67.2,30.12,NE,49,2.0,2.0,95,0.00,,,0.00,VWS V14.00,2013-01-07 14:05:00,
2013-01-07 09:10:00,68.7,67.2,30.12,NE,49,2.0,2.0,95,0.00,,,0.00,VWS V14.00,2013-01-07 14:10:00,
2013-01-07 09:15:00,68.7,67.2,30.12,NE,49,2.0,2.0,95,0.00,,,0.00,VWS V14.00,2013-01-07 14:15:00,
2013-01-07 09:20:00,68.7,67.2,30.12,NE,49,2.0,2.0,95,0.00,,,0.00,VWS V14.00,2013-01-07 14:20:00,
2013-01-07 09:25:00,68.7,67.2,30.12,NE,49,2.0,2.0,95,0.00,,,0.00,VWS V14.00,2013-01-07 14:25:00,
2013-01-07 09:30:00,68.7,67.2,30.12,NE,49,2.0,2.0,95,0.00,,,0.00,VWS V14.00,2013-01-07 14:30:00,
2013-01-07 09:35:00,68.7,67.2,30.13,NE,49,2.0,2.0,95,0.00,,,0.00,VWS V14.00,2013-01-07 14:35:00,
2013-01-07 09:40:00,68.7,67.2,30.13,NE,49,2.0,2.0,95,0.00,,,0.00,VWS V14.00,2013-01-07 14:40:00,
2013-01-07 09:45:00,68.7,67.2,30.13,NE,49,2.0,2.0,95,0.00,,,0.00,VWS V14.00,2013-01-07 14:45:00,
2013-01-07 09:50:00,68.7,67.2,30.13,NE,49,2.0,2.0,95,0.00,,,0.00,VWS V14.00,2013-01-07 14:50:00,
2013-01-07 09:55:00,68.7,67.2,30.13,NE,49,2.0,2.0,95,0.00,,,0.00,VWS V14.00,2013-01-07 14:55:00,
2013-01-07 10:00:00,68.7,67.2,30.13,NE,49,2.0,2.0,95,0.00,,,0.00,VWS V14.00,2013-01-07 15:00:00,
2013-01-07 10:05:00,68.7,67.2,30.13,NE,49,2.0,2.0,95,0.00,,,0.00,VWS V14.00,2013-01-07 15:05:00,
2013-01-07 10:10:00,68.7,67.2,30.13,NE,49,2.0,2.0,95,0.00,,,0.00,VWS V14.00,2013-01-07 15:10:00,
2013-01-07 10:15:00,68.7,67.2,30.13,NE,49,2.0,2.0,95,0.00,,,0.00,VWS V14.00,2013-01-07 15:15:00,
2013-01-07 10:20:00,68.7,67.2,30.13,NE,49,2.0,2.0,95,0.00,,,0.00,VWS V14.00,2013-01-07 15:20:00,
2013-01-07 10:25:00,68.7,67.2,30.13,NE,49,2.0,2.0,95,0.00,,,0.00,VWS V14.00,2013-01-07 15:25:00,
2013-01-07 10:30:00,68.7,67.2,30.13,NE,49,2.0,2.0,95,0.00,,,0.00,VWS V14.00,2013-01-07 15:30:00,
2013-01-07 10:35:00,68.7,67.2,30.13,NE,49,2.0,2.0,95,0.00,,,0.00,VWS V14.00,2013-01-07 15:35:00,
2013-01-07 10:40:00,68.7,67.2,30.13,NE,49,2.0,2.0,95,0.00,,,0.00,VWS V14.00,2013-01-07 15:40:00,
2013-01-07 10:45:00,68.7,67.2,30.13,NE,49,2.0,2.0,95,0.00,,,0.00,VWS V14.00,2013-01-07 15:45:00,
2013-01-07 10:50:00,68.7,67.2,30.13,NE,49,2.0,2.0,95,0.00,,,0.00,VWS V14.00,2013-01-07 15:50:00,
2013-01-07 10:55:00,68.7,67.2,30.13,NE,49,2.0,2.0,95,0.00,,,0.00,VWS V14.00,2013-01-07 15:55:00,
2013-01-07 11:00:00,68.7,67.2,30.13,NE,49,2.0,2.0,95,0.00,,,0.00,VWS V14.00,2013-01-07 16:00:00,
2013-01-07 11:05:00,68.7,67.2,30.12,NE,49,2.0,2.0,95,0.00,,,0.00,VWS V14.00,2013-01-07 16:05:00,
2013-01-07 11:10:00,68.7,67.2,30.12,NE,49,2.0,2.0,95,0.00,,,0.00,VWS V14.00,2013-01-07 16:10:00,
2013-01-07 11:15:00,68.7,67.2,30.12,NE,49,2.0,2.0,95,0.00,,,0.00,VWS V14.00,2013-01-07 16:15:00,
2013-01-07 11:20:00,68.7,67.2,30.11,NE,49,2.0,2.0,95,0.00,,,0.00,VWS V14.00,2013-01-07 16:20:00,
2013-01-07 11:25:00,68.7,67.2,30.11,NE,49,2.0,2.0,95,0.00,,,0.00,VWS V14.00,2013-01-07 16:25:00,
2013-01-07 11:30:00,68.7,67.2,30.11,NE,49,2.0,2.0,95,0.00,,,0.00,VWS V14.00,2013-01-07 16:30:00,
2013-01-07 11:35:00,68.7,67.2,30.11,NE,49,2.0,2.0,95,0.00,,,0.00,VWS V14.00,2013-01-07 16:35:00,
2013-01-07 11:40:00,68.7,67.2,30.11,NE,49,2.0,2.0,95,0.00,,,0.00,VWS V14.00,2013-01-07 16:40:00,
2013-01-07 11:45:00,68.7,67.2,30.11,NE,49,2.0,2.0,95,0.00,,,0.00,VWS V14.00,2013-01-07 16:45:00,
2013-01-07 11:50:00,68.7,67.2,30.10,NE,49,2.0,2.0,95,0.00,,,0.00,VWS V14.00,2013-01-07 16:50:00,
2013-01-07 11:55:00,68.7,67.2,30.10,NE,49,2.0,2.0,95,0.00,,,0.00,VWS V14.00,2013-01-07 16:55:00,
2013-01-07 12:00:00,68.7,67.2,30.10,NE,49,2.0,2.0,95,0.00,,,0.00,VWS V14.00,2013-01-07 17:00:00,
2013-01-07 12:05:00,68.7,67.2,30.11,NE,49,2.0,2.0,95,0.00,,,0.00,VWS V14.00,2013-01-07 17:05:00,
2013-01-07 12:10:00,68.7,67.2,30.10,NE,49,2.0,2.0,95,0.00,,,0.00,VWS V14.00,2013-01-07 17:10:00,
2013-01-07 12:15:00,68.7,67.2,30.10,NE,49,2.0,2.0,95,0.00,,,0.00,VWS V14.00,2013-01-07 17:15:00,
2013-01-07 12:20:00,68.7,67.2,30.10,NE,49,2.0,2.0,95,0.00,,,0.00,VWS V14.00,2013-01-07 17:20:00,
2013-01-07 12:25:00,68.7,67.2,30.09,NE,49,2.0,2.0,95,0.00,,,0.00,VWS V14.00,2013-01-07 17:25:00,
2013-01-07 12:30:00,68.7,67.2,30.08,NE,49,2.0,2.0,95,0.00,,,0.00,VWS V14.00,2013-01-07 17:30:00,
2013-01-07 12:35:00,68.7,67.2,30.08,NE,49,2.0,2.0,95,0.00,,,0.00,VWS V14.00,2013-01-07 17:35:00,
2013-01-07 12:40:00,68.7,67.2,30.08,NE,49,2.0,2.0,95,0.00,,,0.00,VWS V14.00,2013-01-07 17:40:00,
2013-01-07 12:45:00,68.7,67.2,30.08,NE,49,2.0,2.0,95,0.00,,,0.00,VWS V14.00,2013-01-07 17:45:00,
2013-01-07 12:50:00,68.7,67.2,30.07,NE,49,2.0,2.0,95,0.00,,,0.00,VWS V14.00,2013-01-07 17:50:00,
2013-01-07 12:55:00,68.7,67.2,30.06,NE,49,2.0,2.0,95,0.00,,,0.00,VWS V14.00,2013-01-07 17:55:00,
2013-01-07 13:00:00,68.7,67.2,30.06,NE,49,2.0,2.0,95,0.00,,,0.00,VWS V14.00,2013-01-07 18:00:00,
2013-01-07 13:05:00,68.7,67.2,30.06,NE,49,2.0,2.0,95,0.00,,,0.00,VWS V14.00,2013-01-07 18:05:00,
2013-01-07 13:10:00,68.7,67.2,30.05,NE,49,2.0,2.0,95,0.00,,,0.00,VWS V14.00,2013-01-07 18:10:00,
2013-01-07 13:15:00,68.7,67.2,30.05,NE,49,2.0,2.0,95,0.00,,,0.00,VWS V14.00,2013-01-07 18:15:00,
2013-01-07 13:20:00,68.7,67.2,30.05,NE,49,2.0,2.0,95,0.00,,,0.00,VWS V14.00,2013-01-07 18:20:00,
2013-01-07 13:25:00,68.7,67.2,30.05,NE,49,2.0,2.0,95,0.00,,,0.00,VWS V14.00,2013-01-07 18:25:00,
2013-01-07 13:30:00,68.7,67.2,30.05,NE,49,2.0,2.0,95,0.00,,,0.00,VWS V14.00,2013-01-07 18:30:00,
2013-01-07 13:35:00,72.0,68.3,30.05,NE,41,5.0,8.0,88,0.00,,,0.00,VWS V14.00,2013-01-07 18:35:00,
2013-01-07 13:40:00,71.8,68.1,30.06,ENE,59,2.0,8.0,88,0.00,,,0.00,VWS V14.00,2013-01-07 18:40:00,
2013-01-07 13:45:00,71.8,68.1,30.06,ENE,59,2.0,8.0,88,0.00,,,0.00,VWS V14.00,2013-01-07 18:45:00,
2013-01-07 13:50:00,72.2,68.4,30.06,NNE,13,7.0,8.0,88,0.00,,,0.00,VWS V14.00,2013-01-07 18:50:00,
2013-01-07 13:55:00,72.3,68.2,30.06,NNE,33,2.0,9.0,87,0.00,,,0.00,VWS V14.00,2013-01-07 18:55:00,
2013-01-07 14:00:00,72.3,68.2,30.06,NE,49,5.0,5.0,87,0.00,,,0.00,VWS V14.00,2013-01-07 19:00:00,
2013-01-07 14:05:00,72.4,68.3,30.06,NNE,24,4.0,10.0,87,0.00,,,0.00,VWS V14.00,2013-01-07 19:05:00,
2013-01-07 14:10:00,72.4,68.3,30.06,NNE,28,5.0,10.0,87,0.00,,,0.00,VWS V14.00,2013-01-07 19:10:00,
2013-01-07 14:15:00,72.4,68.3,30.05,ENE,68,4.0,4.0,87,0.00,,,0.00,VWS V14.00,2013-01-07 19:15:00,
2013-01-07 14:20:00,72.5,68.4,30.05,NE,43,4.0,10.0,87,0.00,,,0.00,VWS V14.00,2013-01-07 19:20:00,
2013-01-07 14:25:00,72.7,68.6,30.05,ENE,72,7.0,10.0,87,0.00,,,0.00,VWS V14.00,2013-01-07 19:25:00,
2013-01-07 14:30:00,73.1,69.0,30.05,NE,43,4.0,8.0,87,0.00,,,0.00,VWS V14.00,2013-01-07 19:30:00,
2013-01-07 14:35:00,73.4,68.6,30.05,NNE,26,5.0,11.0,85,0.00,,,0.00,VWS V14.00,2013-01-07 19:35:00,
2013-01-07 14:40:00,73.3,68.5,30.05,NNE,23,5.0,13.0,85,0.00,,,0.00,VWS V14.00,2013-01-07 19:40:00,
2013-01-07 14:45:00,73.1,68.0,30.05,ENE,63,3.0,5.0,84,0.00,,,0.00,VWS V14.00,2013-01-07 19:45:00,
2013-01-07 14:50:00,73.3,68.5,30.05,NE,48,4.0,8.0,85,0.00,,,0.00,VWS V14.00,2013-01-07 19:50:00,
2013-01-07 14:55:00,73.1,68.0,30.05,NNE,22,11.0,13.0,84,0.00,,,0.00,VWS V14.00,2013-01-07 19:55:00,
2013-01-07 15:00:00,72.9,67.8,30.05,NE,36,4.0,7.0,84,0.00,,,0.00,VWS V14.00,2013-01-07 20:00:00,
2013-01-07 15:05:00,72.9,68.1,30.05,NNE,33,5.0,7.0,85,0.00,,,0.00,VWS V14.00,2013-01-07 20:05:00,
2013-01-07 15:10:00,73.1,68.0,30.05,ENE,58,6.0,7.0,84,0.00,,,0.00,VWS V14.00,2013-01-07 20:10:00,
2013-01-07 15:15:00,73.5,68.4,30.05,East,80,3.0,5.0,84,0.00,,,0.00,VWS V14.00,2013-01-07 20:15:00,
2013-01-07 15:19:00,73.7,68.2,30.05,NE,43,7.0,10.0,83,0.00,,,0.00,VWS V14.00,2013-01-07 20:19:00,
2013-01-07 15:24:00,74.1,68.6,30.05,ENE,68,3.0,10.0,83,0.00,,,0.00,VWS V14.00,2013-01-07 20:24:00,
2013-01-07 15:29:00,74.3,68.4,30.05,NE,50,6.0,10.0,82,0.00,,,0.00,VWS V14.00,2013-01-07 20:29:00,
2013-01-07 15:34:00,74.6,68.4,30.05,ENE,59,6.0,7.0,81,0.00,,,0.00,VWS V14.00,2013-01-07 20:34:00,
2013-01-07 15:39:00,74.8,68.6,30.05,NNE,19,4.0,8.0,81,0.00,,,0.00,VWS V14.00,2013-01-07 20:39:00,
2013-01-07 15:44:00,74.9,67.9,30.05,NE,51,5.0,11.0,79,0.00,,,0.00,VWS V14.00,2013-01-07 20:44:00,
2013-01-07 15:49:00,75.0,67.7,30.05,East,91,1.0,6.0,78,0.00,,,0.00,VWS V14.00,2013-01-07 20:49:00,
2013-01-07 15:54:00,75.3,68.0,30.05,ENE,63,6.0,8.0,78,0.00,,,0.00,VWS V14.00,2013-01-07 20:54:00,
2013-01-07 15:59:00,75.7,68.4,30.05,NE,39,2.0,8.0,78,0.00,,,0.00,VWS V14.00,2013-01-07 20:59:00,
2013-01-07 16:04:00,75.8,67.7,30.05,NNE,32,4.0,8.0,76,0.00,,,0.00,VWS V14.00,2013-01-07 21:04:00,
2013-01-07 16:09:00,75.8,67.7,30.05,ENE,60,3.0,8.0,76,0.00,,,0.00,VWS V14.00,2013-01-07 21:09:00,
2013-01-07 16:14:00,75.8,67.7,30.05,ENE,68,5.0,8.0,76,0.00,,,0.00,VWS V14.00,2013-01-07 21:14:00,
2013-01-07 16:19:00,75.8,67.7,30.05,NE,46,3.0,7.0,76,0.00,,,0.00,VWS V14.00,2013-01-07 21:19:00,
2013-01-07 16:24:00,75.9,67.8,30.05,ENE,63,4.0,8.0,76,0.00,,,0.00,VWS V14.00,2013-01-07 21:24:00,
2013-01-07 16:29:00,75.9,67.8,30.05,ENE,76,1.0,8.0,76,0.00,,,0.00,VWS V14.00,2013-01-07 21:29:00,
2013-01-07 16:34:00,76.0,67.9,30.05,NE,50,2.0,5.0,76,0.00,,,0.00,VWS V14.00,2013-01-07 21:34:00,
2013-01-07 16:39:00,76.0,67.9,30.05,East,80,6.0,8.0,76,0.00,,,0.00,VWS V14.00,2013-01-07 21:39:00,
2013-01-07 16:44:00,75.9,67.8,30.05,ENE,69,1.0,10.0,76,0.00,,,0.00,VWS V14.00,2013-01-07 21:44:00,
2013-01-07 16:49:00,75.9,67.8,30.06,ENE,68,2.0,4.0,76,0.00,,,0.00,VWS V14.00,2013-01-07 21:49:00,
2013-01-07 16:54:00,75.8,67.7,30.06,NE,47,2.0,6.0,76,0.00,,,0.00,VWS V14.00,2013-01-07 21:54:00,
2013-01-07 16:59:00,75.8,68.1,30.06,ENE,59,2.0,6.0,77,0.00,,,0.00,VWS V14.00,2013-01-07 21:59:00,
2013-01-07 17:04:00,75.7,67.6,30.06,NE,38,6.0,7.0,76,0.00,,,0.00,VWS V14.00,2013-01-07 22:04:00,
2013-01-07 17:09:00,75.6,67.5,30.06,ENE,65,2.0,7.0,76,0.00,,,0.00,VWS V14.00,2013-01-07 22:09:00,
2013-01-07 17:14:00,75.4,67.3,30.06,NE,49,4.0,7.0,76,0.00,,,0.00,VWS V14.00,2013-01-07 22:14:00,
2013-01-07 17:19:00,75.2,67.5,30.06,NE,47,4.0,7.0,77,0.00,,,0.00,VWS V14.00,2013-01-07 22:19:00,
2013-01-07 17:24:00,75.0,67.3,30.06,NE,45,4.0,7.0,77,0.00,,,0.00,VWS V14.00,2013-01-07 22:24:00,
2013-01-07 17:29:00,74.6,67.3,30.06,NE,49,2.0,8.0,78,0.00,,,0.00,VWS V14.00,2013-01-07 22:29:00,
2013-01-07 17:34:00,74.3,67.4,30.07,NE,51,1.0,4.0,79,0.00,,,0.00,VWS V14.00,2013-01-07 22:34:00,
2013-01-07 17:39:00,74.0,67.4,30.07,NE,55,1.0,5.0,80,0.00,,,0.00,VWS V14.00,2013-01-07 22:39:00,
2013-01-07 17:44:00,73.7,67.5,30.07,NE,55,3.0,5.0,81,0.00,,,0.00,VWS V14.00,2013-01-07 22:44:00,
2013-01-07 17:49:00,73.4,67.2,30.07,NE,49,0.0,5.0,81,0.00,,,0.00,VWS V14.00,2013-01-07 22:49:00,
2013-01-07 17:54:00,73.1,67.3,30.07,NE,49,0.0,5.0,82,0.00,,,0.00,VWS V14.00,2013-01-07 22:54:00,
2013-01-07 17:59:00,73.0,67.2,30.08,NE,49,1.0,5.0,82,0.00,,,0.00,VWS V14.00,2013-01-07 22:59:00,
2013-01-07 18:04:00,72.8,67.0,30.08,NE,49,0.0,2.0,82,0.00,,,0.00,VWS V14.00,2013-01-07 23:04:00,
2013-01-07 18:09:00,72.6,67.2,30.08,NE,49,2.0,3.0,83,0.00,,,0.00,VWS V14.00,2013-01-07 23:09:00,
2013-01-07 18:14:00,72.4,66.9,30.08,NE,44,3.0,6.0,83,0.00,,,0.00,VWS V14.00,2013-01-07 23:14:00,
2013-01-07 18:19:00,72.4,66.9,30.08,ENE,75,1.0,3.0,83,0.00,,,0.00,VWS V14.00,2013-01-07 23:19:00,
2013-01-07 18:24:00,72.4,66.9,30.08,ENE,67,1.0,5.0,83,0.00,,,0.00,VWS V14.00,2013-01-07 23:24:00,
2013-01-07 18:29:00,72.4,66.9,30.08,ENE,61,2.0,6.0,83,0.00,,,0.00,VWS V14.00,2013-01-07 23:29:00,
2013-01-07 18:34:00,72.3,66.8,30.08,ENE,61,2.0,4.0,83,0.00,,,0.00,VWS V14.00,2013-01-07 23:34:00,
2013-01-07 18:39:00,72.2,66.8,30.09,NNE,12,2.0,7.0,83,0.00,,,0.00,VWS V14.00,2013-01-07 23:39:00,
2013-01-07 18:44:00,72.1,66.7,30.09,ENE,65,1.0,7.0,83,0.00,,,0.00,VWS V14.00,2013-01-07 23:44:00,
2013-01-07 18:49:00,72.0,66.6,30.09,ENE,65,0.0,4.0,83,0.00,,,0.00,VWS V14.00,2013-01-07 23:49:00,
2013-01-07 18:54:00,71.8,66.4,30.09,ENE,71,2.0,4.0,83,0.00,,,0.00,VWS V14.00,2013-01-07 23:54:00,
2013-01-07 18:59:00,71.7,66.3,30.09,ENE,57,2.0,6.0,83,0.00,,,0.00,VWS V14.00,2013-01-07 23:59:00,
2013-01-07 19:04:00,71.6,66.5,30.09,NE,55,0.0,3.0,84,0.00,,,0.00,VWS V14.00,2013-01-08 00:04:00,
2013-01-07 19:09:00,71.4,66.3,30.09,NE,55,2.0,5.0,84,0.00,,,0.00,VWS V14.00,2013-01-08 00:09:00,
2013-01-07 19:14:00,71.2,66.1,30.09,NE,51,2.0,5.0,84,0.00,,,0.00,VWS V14.00,2013-01-08 00:14:00,
2013-01-07 19:19:00,71.1,66.0,30.09,ENE,73,2.0,4.0,84,0.00,,,0.00,VWS V14.00,2013-01-08 00:19:00,
2013-01-07 19:24:00,71.0,66.3,30.09,ENE,65,0.0,5.0,85,0.00,,,0.00,VWS V14.00,2013-01-08 00:24:00,
2013-01-07 19:29:00,70.8,66.1,30.10,ENE,63,0.0,5.0,85,0.00,,,0.00,VWS V14.00,2013-01-08 00:29:00,
2013-01-07 19:34:00,70.7,66.0,30.10,ENE,63,1.0,4.0,85,0.00,,,0.00,VWS V14.00,2013-01-08 00:34:00,
2013-01-07 19:39:00,70.6,65.9,30.10,ENE,63,1.0,4.0,85,0.00,,,0.00,VWS V14.00,2013-01-08 00:39:00,
2013-01-07 19:44:00,70.4,66.0,30.10,ENE,63,0.0,4.0,86,0.00,,,0.00,VWS V14.00,2013-01-08 00:44:00,
2013-01-07 19:49:00,70.2,65.8,30.10,ENE,63,0.0,2.0,86,0.00,,,0.00,VWS V14.00,2013-01-08 00:49:00,
2013-01-07 19:54:00,70.0,65.6,30.11,ENE,63,0.0,2.0,86,0.00,,,0.00,VWS V14.00,2013-01-08 00:54:00,
2013-01-07 19:59:00,69.9,65.9,30.11,ENE,63,1.0,2.0,87,0.00,,,0.00,VWS V14.00,2013-01-08 00:59:00,
2013-01-07 20:04:00,69.8,65.8,30.10,ENE,63,0.0,2.0,87,0.00,,,0.00,VWS V14.00,2013-01-08 01:04:00,
2013-01-07 20:09:00,69.6,65.6,30.11,ENE,63,0.0,2.0,87,0.00,,,0.00,VWS V14.00,2013-01-08 01:09:00,
2013-01-07 20:14:00,69.5,65.8,30.10,ENE,63,1.0,2.0,88,0.00,,,0.00,VWS V14.00,2013-01-08 01:14:00,
2013-01-07 20:19:00,69.4,65.7,30.10,ENE,63,2.0,2.0,88,0.00,,,0.00,VWS V14.00,2013-01-08 01:19:00,
2013-01-07 20:24:00,69.4,65.7,30.10,ENE,63,0.0,2.0,88,0.00,,,0.00,VWS V14.00,2013-01-08 01:24:00,
2013-01-07 20:29:00,69.3,65.6,30.10,ENE,63,0.0,2.0,88,0.00,,,0.00,VWS V14.00,2013-01-08 01:29:00,
2013-01-07 20:34:00,69.2,65.5,30.10,ENE,63,0.0,4.0,88,0.00,,,0.00,VWS V14.00,2013-01-08 01:34:00,
2013-01-07 20:39:00,69.0,65.6,30.10,ENE,63,0.0,4.0,89,0.00,,,0.00,VWS V14.00,2013-01-08 01:39:00,
2013-01-07 20:43:00,69.0,65.6,30.10,ENE,63,0.0,4.0,89,0.00,,,0.00,VWS V14.00,2013-01-08 01:43:00,
2013-01-07 20:48:00,69.0,65.6,30.10,ENE,63,0.0,3.0,89,0.00,,,0.00,VWS V14.00,2013-01-08 01:48:00,
2013-01-07 20:53:00,69.0,65.6,30.11,NE,46,0.0,5.0,89,0.00,,,0.00,VWS V14.00,2013-01-08 01:53:00,
2013-01-07 20:58:00,69.0,65.6,30.10,NE,46,0.0,5.0,89,0.00,,,0.00,VWS V14.00,2013-01-08 01:58:00,
2013-01-07 21:03:00,68.9,65.5,30.10,NE,46,0.0,0.0,89,0.00,,,0.00,VWS V14.00,2013-01-08 02:03:00,
2013-01-07 21:08:00,68.7,65.3,30.10,NE,46,0.0,0.0,89,0.00,,,0.00,VWS V14.00,2013-01-08 02:08:00,
2013-01-07 21:13:00,68.5,65.1,30.10,NE,46,0.0,2.0,89,0.00,,,0.00,VWS V14.00,2013-01-08 02:13:00,
2013-01-07 21:18:00,68.4,65.4,30.10,NE,46,0.0,0.0,90,0.00,,,0.00,VWS V14.00,2013-01-08 02:18:00,
2013-01-07 21:23:00,68.3,65.3,30.10,NE,46,0.0,3.0,90,0.00,,,0.00,VWS V14.00,2013-01-08 02:23:00,
2013-01-07 21:28:00,68.2,65.2,30.11,NE,46,1.0,3.0,90,0.00,,,0.00,VWS V14.00,2013-01-08 02:28:00,
2013-01-07 21:33:00,68.1,65.4,30.11,NE,46,0.0,3.0,91,0.00,,,0.00,VWS V14.00,2013-01-08 02:33:00,
2013-01-07 21:38:00,68.1,65.4,30.11,NE,46,0.0,3.0,91,0.00,,,0.00,VWS V14.00,2013-01-08 02:38:00,
2013-01-07 21:43:00,68.1,65.4,30.11,NE,46,1.0,3.0,91,0.00,,,0.00,VWS V14.00,2013-01-08 02:43:00,
2013-01-07 21:48:00,68.0,65.3,30.11,NE,46,1.0,3.0,91,0.00,,,0.00,VWS V14.00,2013-01-08 02:48:00,
2013-01-07 21:53:00,68.0,65.3,30.11,NE,46,0.0,4.0,91,0.00,,,0.00,VWS V14.00,2013-01-08 02:53:00,
2013-01-07 21:58:00,68.0,65.6,30.10,NE,48,2.0,5.0,92,0.00,,,0.00,VWS V14.00,2013-01-08 02:58:00,
2013-01-07 22:03:00,68.0,65.3,30.10,NE,48,2.0,3.0,91,0.00,,,0.00,VWS V14.00,2013-01-08 03:03:00,
2013-01-07 22:08:00,68.0,65.6,30.10,NE,48,0.0,3.0,92,0.00,,,0.00,VWS V14.00,2013-01-08 03:08:00,
2013-01-07 22:13:00,67.8,65.1,30.10,NE,48,1.0,3.0,91,0.00,,,0.00,VWS V14.00,2013-01-08 03:13:00,
2013-01-07 22:18:00,67.7,65.0,30.10,NE,48,0.0,0.0,91,0.00,,,0.00,VWS V14.00,2013-01-08 03:18:00,
2013-01-07 22:23:00,67.5,64.8,30.10,NE,48,0.0,0.0,91,0.00,,,0.00,VWS V14.00,2013-01-08 03:23:00,
2013-01-07 22:28:00,67.3,64.9,30.10,NE,48,0.0,0.0,92,0.00,,,0.00,VWS V14.00,2013-01-08 03:28:00,
2013-01-07 22:34:00,67.2,64.8,30.10,NE,48,2.0,2.0,92,0.00,,,0.00,VWS V14.00,2013-01-08 03:34:00,
2013-01-07 22:38:00,67.0,64.6,30.10,NE,48,0.0,3.0,92,0.00,,,0.00,VWS V14.00,2013-01-08 03:38:00,
2013-01-07 22:43:00,66.9,64.5,30.10,NE,48,0.0,3.0,92,0.00,,,0.00,VWS V14.00,2013-01-08 03:43:00,
2013-01-07 22:48:00,66.8,64.4,30.10,NE,48,0.0,1.0,92,0.00,,,0.00,VWS V14.00,2013-01-08 03:48:00,
2013-01-07 22:53:00,66.8,64.7,30.10,NE,48,0.0,2.0,93,0.00,,,0.00,VWS V14.00,2013-01-08 03:53:00,
2013-01-07 22:58:00,66.7,64.6,30.09,NE,48,3.0,3.0,93,0.00,,,0.00,VWS V14.00,2013-01-08 03:58:00,
2013-01-07 23:03:00,66.8,64.7,30.09,NE,48,0.0,1.0,93,0.00,,,0.00,VWS V14.00,2013-01-08 04:03:00,
2013-01-07 23:08:00,66.7,64.6,30.10,NE,48,0.0,2.0,93,0.00,,,0.00,VWS V14.00,2013-01-08 04:08:00,
2013-01-07 23:13:00,66.7,64.6,30.09,NE,53,0.0,3.0,93,0.00,,,0.00,VWS V14.00,2013-01-08 04:13:00,
2013-01-07 23:18:00,66.7,64.6,30.09,NE,53,0.0,3.0,93,0.00,,,0.00,VWS V14.00,2013-01-08 04:18:00,
2013-01-07 23:23:00,66.8,64.7,30.09,NE,53,0.0,3.0,93,0.00,,,0.00,VWS V14.00,2013-01-08 04:23:00,
2013-01-07 23:28:00,66.8,64.7,30.09,NE,53,0.0,3.0,93,0.00,,,0.00,VWS V14.00,2013-01-08 04:28:00,
2013-01-07 23:33:00,66.7,64.6,30.09,NE,53,0.0,3.0,93,0.00,,,0.00,VWS V14.00,2013-01-08 04:33:00,
2013-01-07 23:38:00,66.7,64.6,30.09,NE,53,0.0,3.0,93,0.00,,,0.00,VWS V14.00,2013-01-08 04:38:00,
2013-01-07 23:43:00,66.6,64.5,30.09,ENE,76,2.0,4.0,93,0.00,,,0.00,VWS V14.00,2013-01-08 04:43:00,
2013-01-07 23:48:00,66.6,64.5,30.09,NNE,33,0.0,5.0,93,0.00,,,0.00,VWS V14.00,2013-01-08 04:48:00,
2013-01-07 23:53:00,66.5,64.4,30.09,NNE,33,3.0,5.0,93,0.00,,,0.00,VWS V14.00,2013-01-08 04:53:00,
2013-01-07 23:58:00,66.6,64.8,30.09,NE,40,3.0,5.0,94,0.00,,,0.00,VWS V14.00,2013-01-08 04:58:00,